Huvudsida
METAR-TAF:

METAR-TAF

Flygplatser :

Bushehr Civ / Afb

Bushehr, Iran

latitud: 28-59N, longitud: 050-50E, höjd: 19 m

Aktuellt väderrapport

Denna rapport gjordes för 29 minuter sedan, klockan 08:00 UTC
Vind 4 kt från sydväst
Temperatur 21°C
Fuktighet 69%
Tryck 1020 hPa
Sikt: 7000 m
Få moln på en höjd av 1500 ft

METAR: OIBB 220800Z 23004KT 7000 FEW015 21/15 Q1020 A3012

Tid: 11:59 (08:29 UTC)


TAF: saknas

Aktuella väderrapporter och prognoser från 4000 flygplatser (METAR- och TAF-rapporter).

De tillgängliga stationerna syns som gula och röda prickar på kartan.

För musen över prickarna för att se namnen på stationerna.

Klicka sedan för att få väderrapporter och prognoser.

För att ändra kartan: Klicka på de gröna knapparna med ett svart kors på för att zooma in; den gröna knappen med ett streck på för att zooma ut; eller på de gröna pilarna för angränsande kartor.


METAR-TAF: